Time;durP1;ratioP1;P1;durP2;ratioP2;P2;SDS_P1;SDS_P2;PMS_P1;PMS_P2;Temp;Humidity;BMP_temperature;BMP_pressure;BME280_temperature;BME280_humidity;BME280_pressure;Samples;Min_cycle;Max_cycle;Signal;HPM_P1;HPM_P2
2023/10/19 00:00:38;;;;;;;;;;;;;;;7.39;98.29;95324.69;5115037;28;1992;-57
2023/10/19 00:03:06;;;;;;;;;;;;;;;7.22;97.22;95328.84;5115215;28;1878;-57
2023/10/19 00:05:32;;;;;;;;;;;;;;;7.09;96.64;95316.78;5114995;27;1028;-57
2023/10/19 00:07:59;;;;;;;;;;;;;;;6.87;98.05;95317.81;5115291;28;1145;-57
2023/10/19 00:10:29;;;;;;;;;;;;;;;6.96;98.75;95315.22;5114888;28;1028;-57
2023/10/19 00:13:03;;;;;;;;;;;;;;;7.01;98.47;95315.63;5114911;28;1067;-57
2023/10/19 00:15:40;;;;;;;;;;;;;;;7.22;98.55;95312.88;5114860;28;1967;-57
2023/10/19 00:23:18;;;;;;;;;;;;;;;7.34;99.28;95304.78;5114613;28;1090;-57
2023/10/19 00:25:49;;;;;;;;;;;;;;;7.40;99.08;95305.09;5114979;28;1037;-57
2023/10/19 00:28:17;;;;;;;;;;;;;;;7.43;99.40;95302.13;5114610;28;1044;-57
2023/10/19 00:30:45;;;;;;;;;;;;;;;7.38;100.00;95301.75;5114679;27;792;-57
2023/10/19 00:33:21;;;;;;;;;;;;;;;7.40;100.00;95296.28;5114822;28;1036;-57
2023/10/19 00:36:08;;;;;;;;;;;;;;;7.19;99.72;95305.19;5114875;28;1036;-57
2023/10/19 00:43:46;;;;;;;;;;;;;;;7.32;99.93;95291.66;5114509;28;1059;-57
2023/10/19 00:48:51;;;;;;;;;;;;;;;7.53;99.08;95285.34;5114382;28;1079;-57
2023/10/19 00:54:04;;;;;;;;;;;;;;;7.39;98.44;95279.47;5114299;28;1965;-57
2023/10/19 00:56:32;;;;;;;;;;;;;;;7.39;97.90;95284.78;5114022;28;1040;-57
2023/10/19 00:59:21;;;;;;;;;;;;;;;7.37;98.45;95288.56;5113943;28;1572;-57
2023/10/19 01:01:49;;;;;;;;;;;;;;;7.39;99.59;95287.44;5114241;28;1933;-57
2023/10/19 01:04:22;;;;;;;;;;;;;;;7.39;98.94;95297.25;5113960;28;1088;-57
2023/10/19 01:09:36;;;;;;;;;;;;;;;7.13;100.00;95295.13;5114329;28;1354;-57
2023/10/19 01:15:05;;;;;;;;;;;;;;;7.14;100.00;95277.34;5114182;28;1037;-57
2023/10/19 01:17:33;;;;;;;;;;;;;;;7.21;100.00;95284.63;5113685;28;1024;-57
2023/10/19 01:20:00;;;;;;;;;;;;;;;7.35;100.00;95282.56;5113719;28;1910;-57
2023/10/19 01:22:27;;;;;;;;;;;;;;;7.41;100.00;95279.34;5113881;28;972;-57
2023/10/19 01:24:55;;;;;;;;;;;;;;;7.41;100.00;95274.00;5113811;28;1032;-57
2023/10/19 01:27:21;;;;;;;;;;;;;;;7.47;100.00;95283.25;5114071;28;956;-57
2023/10/19 01:29:47;;;;;;;;;;;;;;;7.59;100.00;95288.31;5113707;28;992;-57
2023/10/19 01:32:15;;;;;;;;;;;;;;;7.56;100.00;95293.06;5113672;28;1032;-57
2023/10/19 01:34:41;;;;;;;;;;;;;;;7.49;100.00;95292.78;5112626;28;1036;-57
2023/10/19 01:37:07;;;;;;;;;;;;;;;7.39;100.00;95289.28;5113891;28;947;-57
2023/10/19 01:39:35;;;;;;;;;;;;;;;7.33;100.00;95288.00;5113876;28;1910;-57
2023/10/19 01:42:04;;;;;;;;;;;;;;;7.41;100.00;95289.97;5113745;28;959;-57
2023/10/19 01:44:30;;;;;;;;;;;;;;;7.33;99.38;95293.31;5113594;28;1056;-57
2023/10/19 01:46:56;;;;;;;;;;;;;;;7.26;99.42;95292.19;5113924;28;1032;-57
2023/10/19 01:49:29;;;;;;;;;;;;;;;7.20;98.61;95285.59;5115906;28;987;-57
2023/10/19 01:51:55;;;;;;;;;;;;;;;7.08;98.16;95292.03;5118061;28;1073;-57
2023/10/19 01:54:25;;;;;;;;;;;;;;;7.00;99.18;95291.84;5117921;28;988;-57
2023/10/19 01:56:54;;;;;;;;;;;;;;;7.10;99.29;95290.06;5117941;28;1011;-57
2023/10/19 01:59:21;;;;;;;;;;;;;;;6.94;98.51;95289.72;5117330;28;1154;-57
2023/10/19 02:01:49;;;;;;;;;;;;;;;6.82;98.68;95289.00;5117423;28;1910;-57
2023/10/19 02:04:15;;;;;;;;;;;;;;;6.84;98.87;95293.19;5117378;28;1028;-57
2023/10/19 02:06:41;;;;;;;;;;;;;;;6.74;97.60;95289.66;5117666;28;1141;-57
2023/10/19 02:09:17;;;;;;;;;;;;;;;6.77;97.93;95291.22;5117710;28;995;-57
2023/10/19 02:11:46;;;;;;;;;;;;;;;6.79;98.04;95297.22;5117380;28;1016;-57
2023/10/19 02:14:18;;;;;;;;;;;;;;;6.78;98.50;95304.38;5117445;28;1035;-57
2023/10/19 02:16:50;;;;;;;;;;;;;;;6.80;98.83;95293.59;5116300;28;1013;-57
2023/10/19 02:19:16;;;;;;;;;;;;;;;6.70;98.79;95290.91;5117202;28;1095;-57
2023/10/19 02:21:42;;;;;;;;;;;;;;;6.49;98.84;95301.59;5117333;28;1985;-57
2023/10/19 02:24:09;;;;;;;;;;;;;;;6.43;99.35;95302.97;5117062;28;1051;-57
2023/10/19 02:26:37;;;;;;;;;;;;;;;6.61;100.00;95308.50;5117311;28;1016;-57
2023/10/19 02:29:09;;;;;;;;;;;;;;;6.57;99.63;95300.94;5116977;28;1076;-57
2023/10/19 02:31:39;;;;;;;;;;;;;;;6.50;100.00;95305.09;5117149;28;972;-57
2023/10/19 02:34:10;;;;;;;;;;;;;;;6.38;100.00;95307.81;5116908;28;1036;-57
2023/10/19 02:36:37;;;;;;;;;;;;;;;6.38;100.00;95302.50;5116945;28;1126;-57
2023/10/19 02:39:08;;;;;;;;;;;;;;;6.43;100.00;95307.41;5116835;28;1036;-57
2023/10/19 02:41:37;;;;;;;;;;;;;;;6.43;100.00;95302.97;5116680;28;2029;-56
2023/10/19 02:46:34;;;;;;;;;;;;;;;6.76;100.00;95300.16;5116771;28;1019;-55
2023/10/19 02:49:00;;;;;;;;;;;;;;;6.73;100.00;95295.94;5116629;28;1115;-55
2023/10/19 02:51:26;;;;;;;;;;;;;;;6.54;99.74;95295.88;5116421;28;1019;-56
2023/10/19 02:53:53;;;;;;;;;;;;;;;6.14;100.00;95300.13;5116452;28;1028;-56
2023/10/19 02:56:19;;;;;;;;;;;;;;;6.05;100.00;95301.78;5116552;28;1004;-57
2023/10/19 02:58:51;;;;;;;;;;;;;;;6.04;99.65;95305.38;5116333;28;1097;-56
2023/10/19 03:01:21;;;;;;;;;;;;;;;6.09;100.00;95307.66;5115328;28;1910;-56
2023/10/19 03:03:51;;;;;;;;;;;;;;;6.15;100.00;95303.66;5116889;28;984;-56
2023/10/19 03:06:19;;;;;;;;;;;;;;;6.15;100.00;95295.69;5116483;27;1024;-57
2023/10/19 03:08:46;;;;;;;;;;;;;;;6.26;99.79;95295.59;5116507;28;1133;-56
2023/10/19 03:11:13;;;;;;;;;;;;;;;6.25;99.05;95289.44;5116124;28;1087;-57
2023/10/19 03:13:40;;;;;;;;;;;;;;;6.16;98.12;95292.88;5116131;28;1047;-56
2023/10/19 03:16:09;;;;;;;;;;;;;;;6.16;99.61;95282.25;5116010;28;1235;-56
2023/10/19 03:18:38;;;;;;;;;;;;;;;6.13;98.14;95290.50;5115927;28;1114;-56
2023/10/19 03:21:05;;;;;;;;;;;;;;;6.03;98.50;95295.75;5116120;28;1991;-56
2023/10/19 03:23:34;;;;;;;;;;;;;;;6.13;98.54;95294.94;5116022;28;1035;-56
2023/10/19 03:26:22;;;;;;;;;;;;;;;6.31;98.93;95301.34;5115834;28;1036;-56
2023/10/19 03:28:49;;;;;;;;;;;;;;;6.49;97.55;95300.72;5115827;28;1043;-56
2023/10/19 03:31:18;;;;;;;;;;;;;;;6.45;98.92;95305.50;5115630;28;1095;-56
2023/10/19 03:33:44;;;;;;;;;;;;;;;6.53;99.41;95310.97;5115714;28;1012;-57
2023/10/19 03:36:13;;;;;;;;;;;;;;;6.48;99.50;95309.69;5115580;28;1873;-56
2023/10/19 03:38:40;;;;;;;;;;;;;;;6.43;100.00;95302.09;5115725;28;941;-56
2023/10/19 03:41:10;;;;;;;;;;;;;;;6.36;100.00;95296.50;5115744;28;1988;-57
2023/10/19 03:43:40;;;;;;;;;;;;;;;6.55;100.00;95285.13;5115499;28;1048;-57
2023/10/19 03:46:18;;;;;;;;;;;;;;;6.62;100.00;95288.94;5115674;28;1012;-56
2023/10/19 03:48:46;;;;;;;;;;;;;;;6.51;100.00;95286.38;5115577;28;1118;-56
2023/10/19 03:51:13;;;;;;;;;;;;;;;6.48;100.00;95280.47;5115332;28;1055;-56
2023/10/19 03:53:44;;;;;;;;;;;;;;;6.68;100.00;95278.72;5115269;28;1095;-56
2023/10/19 03:56:11;;;;;;;;;;;;;;;6.67;100.00;95285.03;5113779;28;1561;-56
2023/10/19 03:58:39;;;;;;;;;;;;;;;6.42;100.00;95272.06;5115121;28;1136;-56
2023/10/19 04:01:05;;;;;;;;;;;;;;;6.58;100.00;95279.56;5115274;28;1909;-56
2023/10/19 04:03:31;;;;;;;;;;;;;;;6.56;100.00;95277.97;5114973;28;1270;-56
2023/10/19 04:06:03;;;;;;;;;;;;;;;6.76;100.00;95282.41;5114988;28;1091;-56
2023/10/19 04:08:34;;;;;;;;;;;;;;;6.96;100.00;95280.66;5114900;28;1177;-57
2023/10/19 04:11:21;;;;;;;;;;;;;;;7.06;100.00;95274.50;5115259;28;971;-56
2023/10/19 04:13:52;;;;;;;;;;;;;;;7.12;100.00;95272.16;5114921;28;1095;-56
2023/10/19 04:16:19;;;;;;;;;;;;;;;7.09;100.00;95267.09;5115043;28;980;-56
2023/10/19 04:18:45;;;;;;;;;;;;;;;6.99;100.00;95268.91;5115083;28;1004;-57
2023/10/19 04:21:10;;;;;;;;;;;;;;;6.81;100.00;95268.69;5114567;28;1981;-56
2023/10/19 04:23:36;;;;;;;;;;;;;;;6.71;100.00;95270.50;5114876;28;1038;-56
2023/10/19 04:26:10;;;;;;;;;;;;;;;6.65;100.00;95270.03;5114968;28;1054;-56
2023/10/19 04:28:49;;;;;;;;;;;;;;;6.75;100.00;95264.75;5114962;28;1093;-56
2023/10/19 04:31:19;;;;;;;;;;;;;;;6.70;100.00;95259.03;5114700;28;1051;-56
2023/10/19 04:33:45;;;;;;;;;;;;;;;6.69;100.00;95259.16;5114571;28;1024;-56
2023/10/19 04:36:12;;;;;;;;;;;;;;;6.67;100.00;95259.28;5114736;28;1063;-56
2023/10/19 04:38:38;;;;;;;;;;;;;;;6.56;100.00;95257.56;5114717;28;1047;-56
2023/10/19 04:41:08;;;;;;;;;;;;;;;6.56;100.00;95254.91;5114357;28;1998;-56
2023/10/19 04:43:37;;;;;;;;;;;;;;;6.65;100.00;95255.94;5114446;28;1032;-57
2023/10/19 04:46:10;;;;;;;;;;;;;;;6.71;100.00;95260.69;5114748;28;1012;-57
2023/10/19 04:48:36;;;;;;;;;;;;;;;6.74;100.00;95259.59;5114600;28;1257;-59
2023/10/19 04:51:03;;;;;;;;;;;;;;;6.67;100.00;95261.13;5114245;28;1147;-55
2023/10/19 04:53:30;;;;;;;;;;;;;;;6.68;100.00;95261.00;5114526;28;1057;-55
2023/10/19 04:55:56;;;;;;;;;;;;;;;6.62;100.00;95258.84;5114569;28;1020;-55
2023/10/19 04:58:22;;;;;;;;;;;;;;;6.53;100.00;95259.69;5114107;28;1182;-56
2023/10/19 05:00:48;;;;;;;;;;;;;;;6.53;100.00;95259.69;5114168;28;1914;-56
2023/10/19 05:03:18;;;;;;;;;;;;;;;6.65;100.00;95259.41;5114016;28;1036;-57
2023/10/19 05:05:44;;;;;;;;;;;;;;;6.75;100.00;95266.59;5113154;28;1053;-57
2023/10/19 05:08:10;;;;;;;;;;;;;;;6.73;100.00;95265.88;5113866;28;1208;-56
2023/10/19 05:10:36;;;;;;;;;;;;;;;6.80;100.00;95273.19;5114365;28;1116;-56
2023/10/19 05:13:03;;;;;;;;;;;;;;;6.77;100.00;95270.81;5114032;28;1039;-56
2023/10/19 05:15:29;;;;;;;;;;;;;;;6.83;100.00;95280.91;5114140;28;1012;-56
2023/10/19 05:17:56;;;;;;;;;;;;;;;6.87;100.00;95275.28;5113945;28;1003;-56
2023/10/19 05:20:23;;;;;;;;;;;;;;;6.92;100.00;95275.72;5113918;28;1906;-56
2023/10/19 05:22:49;;;;;;;;;;;;;;;7.03;100.00;95278.28;5113662;28;1869;-56
2023/10/19 05:25:16;;;;;;;;;;;;;;;7.12;100.00;95282.78;5113601;28;1046;-56
2023/10/19 05:27:42;;;;;;;;;;;;;;;7.25;100.00;95277.22;5113877;28;1051;-56
2023/10/19 05:30:11;;;;;;;;;;;;;;;7.45;100.00;95283.38;5113867;28;1095;-56
2023/10/19 05:32:37;;;;;;;;;;;;;;;7.57;100.00;95292.94;5114114;28;1002;-56
2023/10/19 05:35:04;;;;;;;;;;;;;;;7.55;100.00;95292.22;5113978;28;976;-56
2023/10/19 05:37:31;;;;;;;;;;;;;;;7.47;100.00;95284.09;5113805;28;964;-56
2023/10/19 05:39:57;;;;;;;;;;;;;;;7.60;100.00;95282.00;5113889;28;1909;-56
2023/10/19 05:42:23;;;;;;;;;;;;;;;7.56;100.00;95283.25;5112376;28;1024;-56
2023/10/19 05:44:49;;;;;;;;;;;;;;;7.69;100.00;95279.50;5113721;28;1047;-56
2023/10/19 05:47:15;;;;;;;;;;;;;;;7.87;100.00;95283.09;5113787;28;976;-56
2023/10/19 05:49:41;;;;;;;;;;;;;;;7.99;100.00;95282.00;5113909;28;968;-56
2023/10/19 05:52:07;;;;;;;;;;;;;;;8.22;100.00;95284.34;5113726;28;1044;-56
2023/10/19 05:54:33;;;;;;;;;;;;;;;8.37;100.00;95272.25;5113454;28;1056;-56
2023/10/19 05:56:59;;;;;;;;;;;;;;;8.45;100.00;95284.03;5113666;28;1035;-55
2023/10/19 05:59:26;;;;;;;;;;;;;;;8.65;100.00;95275.00;5113298;28;1218;-56
2023/10/19 06:01:52;;;;;;;;;;;;;;;8.76;100.00;95272.16;5113744;28;1984;-56
2023/10/19 06:04:18;;;;;;;;;;;;;;;8.87;100.00;95280.94;5113709;28;976;-56
2023/10/19 06:06:44;;;;;;;;;;;;;;;9.05;100.00;95284.50;5113344;28;1092;-56
2023/10/19 06:09:11;;;;;;;;;;;;;;;9.23;100.00;95276.53;5113682;28;1314;-57
2023/10/19 06:11:42;;;;;;;;;;;;;;;9.22;100.00;95276.66;5113357;28;1032;-57
2023/10/19 06:14:09;;;;;;;;;;;;;;;9.41;100.00;95279.22;5113435;28;1004;-58
2023/10/19 06:16:35;;;;;;;;;;;;;;;9.37;100.00;95276.03;5113280;28;1045;-55
2023/10/19 06:19:02;;;;;;;;;;;;;;;9.46;100.00;95274.25;5113307;28;1100;-56
2023/10/19 06:21:30;;;;;;;;;;;;;;;9.49;100.00;95271.31;5113434;28;1984;-56
2023/10/19 06:23:56;;;;;;;;;;;;;;;9.56;100.00;95282.19;5113576;28;965;-56
2023/10/19 06:26:22;;;;;;;;;;;;;;;9.44;100.00;95278.09;5113306;28;1108;-55
2023/10/19 06:28:50;;;;;;;;;;;;;;;9.39;100.00;95275.88;5113183;28;992;-55
2023/10/19 06:31:17;;;;;;;;;;;;;;;9.43;100.00;95269.25;5113465;28;976;-56
2023/10/19 06:33:43;;;;;;;;;;;;;;;9.31;100.00;95265.94;5113404;28;1310;-55
2023/10/19 06:36:09;;;;;;;;;;;;;;;9.47;100.00;95264.44;5114847;28;1049;-56
2023/10/19 06:38:35;;;;;;;;;;;;;;;9.57;100.00;95260.69;5116838;28;1672;-56
2023/10/19 06:41:10;;;;;;;;;;;;;;;9.57;100.00;95263.38;5117042;28;1914;-56
2023/10/19 06:43:37;;;;;;;;;;;;;;;9.55;100.00;95262.69;5117071;28;1027;-56
2023/10/19 06:46:03;;;;;;;;;;;;;;;9.57;100.00;95259.88;5116947;28;1136;-56
2023/10/19 06:48:29;;;;;;;;;;;;;;;9.60;100.00;95262.25;5116896;28;976;-56
2023/10/19 06:50:56;;;;;;;;;;;;;;;9.61;100.00;95268.41;5116936;28;1035;-56
2023/10/19 06:53:22;;;;;;;;;;;;;;;9.62;99.72;95262.94;5116822;28;1125;-56
2023/10/19 06:55:48;;;;;;;;;;;;;;;9.85;100.00;95260.63;5116859;28;1048;-56
2023/10/19 06:58:19;;;;;;;;;;;;;;;10.09;99.23;95249.31;5116386;28;1227;-57
2023/10/19 07:00:55;;;;;;;;;;;;;;;10.33;99.15;95254.00;5116403;28;1910;-57
2023/10/19 07:03:22;;;;;;;;;;;;;;;10.37;98.61;95254.50;5116650;28;1055;-57
2023/10/19 07:05:49;;;;;;;;;;;;;;;10.47;98.40;95252.59;5116438;28;968;-57
2023/10/19 07:08:15;;;;;;;;;;;;;;;10.41;98.91;95244.34;5116167;28;1153;-57
2023/10/19 07:10:42;;;;;;;;;;;;;;;10.40;98.83;95250.72;5116433;28;1110;-57
2023/10/19 07:13:09;;;;;;;;;;;;;;;10.21;99.48;95254.41;5116212;28;1079;-57
2023/10/19 07:15:34;;;;;;;;;;;;;;;10.23;100.00;95253.22;5116389;28;1208;-57
2023/10/19 07:18:00;;;;;;;;;;;;;;;10.24;100.00;95254.91;5116191;28;968;-56
2023/10/19 07:20:32;;;;;;;;;;;;;;;10.24;100.00;95259.41;5116145;28;1983;-57
2023/10/19 07:23:18;;;;;;;;;;;;;;;10.24;99.35;95254.91;5116297;28;960;-57
2023/10/19 07:25:45;;;;;;;;;;;;;;;10.14;100.00;95255.00;5116272;28;984;-55
2023/10/19 07:28:17;;;;;;;;;;;;;;;10.22;99.62;95264.91;5115712;28;1638;-56
2023/10/19 07:30:43;;;;;;;;;;;;;;;10.28;99.59;95258.09;5115979;27;1003;-56
2023/10/19 07:33:10;;;;;;;;;;;;;;;10.22;100.00;95258.72;5115881;28;1039;-55
2023/10/19 07:35:42;;;;;;;;;;;;;;;10.29;99.36;95252.59;5115703;28;1118;-55
2023/10/19 07:38:08;;;;;;;;;;;;;;;10.33;100.00;95251.31;5115753;28;1087;-56
2023/10/19 07:40:35;;;;;;;;;;;;;;;10.29;100.00;95249.94;5115823;27;1990;-55
2023/10/19 07:43:01;;;;;;;;;;;;;;;10.40;99.94;95261.41;5116013;28;953;-56
2023/10/19 07:45:27;;;;;;;;;;;;;;;10.46;100.00;95271.47;5115621;28;953;-55
2023/10/19 07:47:53;;;;;;;;;;;;;;;10.58;99.34;95269.34;5115148;28;964;-56
2023/10/19 07:50:22;;;;;;;;;;;;;;;10.68;99.20;95270.94;5115532;28;964;-55
2023/10/19 07:52:51;;;;;;;;;;;;;;;10.85;97.37;95279.00;5115233;28;1011;-57
2023/10/19 07:55:18;;;;;;;;;;;;;;;10.93;97.16;95282.56;5114081;28;1032;-57
2023/10/19 07:57:44;;;;;;;;;;;;;;;10.85;98.63;95298.59;5115206;28;1080;-57
2023/10/19 08:00:14;;;;;;;;;;;;;;;11.00;97.45;95298.81;5115001;28;1909;-57
2023/10/19 08:02:45;;;;;;;;;;;;;;;11.24;96.41;95289.22;5115158;28;1088;-56
2023/10/19 08:05:12;;;;;;;;;;;;;;;11.97;92.64;95293.09;5114919;28;1059;-55
2023/10/19 08:07:46;;;;;;;;;;;;;;;12.41;91.01;95288.25;5115262;28;1165;-55
2023/10/19 08:10:13;;;;;;;;;;;;;;;12.52;90.58;95295.13;5115269;28;1059;-55
2023/10/19 08:12:42;;;;;;;;;;;;;;;12.36;89.41;95289.75;5115299;28;1048;-55
2023/10/19 08:15:11;;;;;;;;;;;;;;;12.33;88.71;95287.41;5115288;28;980;-55
2023/10/19 08:17:38;;;;;;;;;;;;;;;12.38;87.56;95274.34;5114886;28;1134;-56
2023/10/19 08:20:08;;;;;;;;;;;;;;;12.19;90.15;95270.16;5115077;28;1910;-55
2023/10/19 08:22:36;;;;;;;;;;;;;;;11.97;90.73;95261.81;5114760;28;1080;-55
2023/10/19 08:25:04;;;;;;;;;;;;;;;11.95;93.43;95254.91;5115098;28;1044;-55
2023/10/19 08:27:31;;;;;;;;;;;;;;;12.13;90.44;95255.59;5114662;28;1845;-55
2023/10/19 08:29:57;;;;;;;;;;;;;;;12.40;89.76;95257.06;5114746;28;1000;-55
2023/10/19 08:32:23;;;;;;;;;;;;;;;12.56;89.47;95250.84;5114513;27;1046;-58
2023/10/19 08:34:49;;;;;;;;;;;;;;;12.76;89.00;95247.78;5114952;27;996;-55
2023/10/19 08:37:15;;;;;;;;;;;;;;;13.12;88.41;95250.00;5114672;28;998;-55
2023/10/19 08:39:43;;;;;;;;;;;;;;;13.25;86.90;95239.53;5113196;28;1036;-55
2023/10/19 08:42:10;;;;;;;;;;;;;;;13.26;89.18;95242.06;5114674;28;1906;-55
2023/10/19 08:44:36;;;;;;;;;;;;;;;13.25;88.44;95251.09;5114301;28;1025;-55
2023/10/19 08:47:05;;;;;;;;;;;;;;;13.25;86.79;95256.47;5114384;28;1040;-55
2023/10/19 08:49:31;;;;;;;;;;;;;;;13.60;87.95;95259.69;5114519;28;995;-55
2023/10/19 08:51:58;;;;;;;;;;;;;;;14.15;85.42;95263.19;5114346;28;1108;-55
2023/10/19 08:54:25;;;;;;;;;;;;;;;14.54;82.67;95253.25;5114408;28;987;-55
2023/10/19 08:56:51;;;;;;;;;;;;;;;14.46;82.38;95251.47;5114340;28;968;-55
2023/10/19 08:59:17;;;;;;;;;;;;;;;14.60;83.03;95242.59;5111869;28;1088;-55
2023/10/19 09:01:44;;;;;;;;;;;;;;;14.58;83.52;95246.50;5114276;28;1996;-55
2023/10/19 09:04:11;;;;;;;;;;;;;;;14.62;83.20;95231.66;5114261;28;1044;-55
2023/10/19 09:06:44;;;;;;;;;;;;;;;14.54;81.95;95229.88;5113040;28;1220;-55
2023/10/19 09:09:21;;;;;;;;;;;;;;;14.43;82.70;95219.56;5113964;28;1090;-55
2023/10/19 09:11:48;;;;;;;;;;;;;;;14.34;84.77;95217.94;5113933;28;960;-55
2023/10/19 09:14:17;;;;;;;;;;;;;;;14.30;85.04;95219.34;5113810;28;1095;-56
2023/10/19 09:16:55;;;;;;;;;;;;;;;14.23;85.39;95214.69;5113864;28;1071;-55
2023/10/19 09:19:36;;;;;;;;;;;;;;;13.86;86.86;95213.66;5113935;28;1043;-55
2023/10/19 09:22:07;;;;;;;;;;;;;;;14.16;86.75;95221.81;5113810;28;1905;-55
2023/10/19 09:24:34;;;;;;;;;;;;;;;14.34;86.85;95208.06;5113671;28;1031;-54
2023/10/19 09:27:02;;;;;;;;;;;;;;;14.94;83.56;95219.69;5113990;28;980;-56
2023/10/19 09:29:28;;;;;;;;;;;;;;;15.41;80.50;95221.13;5113753;28;992;-56
2023/10/19 09:31:56;;;;;;;;;;;;;;;15.51;80.44;95220.81;5113902;28;1039;-55
2023/10/19 09:34:31;;;;;;;;;;;;;;;15.51;79.15;95215.44;5113619;28;1052;-55
2023/10/19 09:37:00;;;;;;;;;;;;;;;15.46;80.91;95211.63;5113657;28;1869;-56
2023/10/19 09:39:35;;;;;;;;;;;;;;;15.28;80.25;95212.06;5113773;28;1051;-56
2023/10/19 09:42:11;;;;;;;;;;;;;;;15.29;80.08;95224.50;5113786;28;1975;-55
2023/10/19 09:44:41;;;;;;;;;;;;;;;15.62;80.62;95219.50;5113606;28;1044;-56
2023/10/19 09:47:26;;;;;;;;;;;;;;;15.75;79.48;95219.66;5113988;28;976;-56
2023/10/19 09:49:52;;;;;;;;;;;;;;;16.18;76.26;95216.13;5113863;28;1047;-56
2023/10/19 09:52:18;;;;;;;;;;;;;;;16.45;74.58;95202.84;5113594;28;956;-56
2023/10/19 09:54:54;;;;;;;;;;;;;;;16.52;75.75;95201.03;5113450;28;1048;-56
2023/10/19 09:57:31;;;;;;;;;;;;;;;16.70;74.97;95190.56;5113170;28;1249;-57
2023/10/19 10:00:07;;;;;;;;;;;;;;;16.89;73.97;95174.72;5113411;28;2013;-57
2023/10/19 10:02:34;;;;;;;;;;;;;;;16.89;75.08;95185.53;5113687;28;1007;-56
2023/10/19 10:04:59;;;;;;;;;;;;;;;17.01;72.13;95188.50;5113424;28;1064;-56
2023/10/19 10:07:26;;;;;;;;;;;;;;;16.98;74.46;95171.66;5113575;28;1125;-57
2023/10/19 10:09:53;;;;;;;;;;;;;;;17.04;72.41;95167.31;5114578;28;1079;-57
2023/10/19 10:12:29;;;;;;;;;;;;;;;17.22;72.57;95158.66;5117372;28;1035;-57
2023/10/19 10:14:57;;;;;;;;;;;;;;;17.51;70.61;95162.06;5117364;28;1048;-56
2023/10/19 10:17:24;;;;;;;;;;;;;;;17.31;70.84;95149.34;5117404;27;965;-56
2023/10/19 10:19:53;;;;;;;;;;;;;;;17.28;72.53;95152.47;5107778;28;2451;-56
2023/10/19 10:22:21;;;;;;;;;;;;;;;17.47;71.96;95136.47;5096780;28;1060;-56
2023/10/19 10:24:48;;;;;;;;;;;;;;;17.81;69.89;95137.38;5096424;28;957;-56
2023/10/19 10:27:19;;;;;;;;;;;;;;;17.63;69.28;95122.59;5096477;28;1052;-57
2023/10/19 10:29:54;;;;;;;;;;;;;;;17.60;68.17;95122.16;5096528;28;1051;-57
2023/10/19 10:32:39;;;;;;;;;;;;;;;17.79;69.20;95105.13;5096833;28;1039;-56
2023/10/19 10:35:06;;;;;;;;;;;;;;;18.17;69.35;95101.81;5096599;28;1039;-56
2023/10/19 10:37:36;;;;;;;;;;;;;;;18.18;68.33;95094.56;5096482;28;1038;-56
2023/10/19 10:40:03;;;;;;;;;;;;;;;18.16;67.91;95085.81;5096685;28;2012;-56
2023/10/19 10:42:29;;;;;;;;;;;;;;;18.27;68.66;95088.72;5096576;28;968;-56
2023/10/19 10:44:55;;;;;;;;;;;;;;;18.26;67.75;95065.41;5096383;28;1037;-56
2023/10/19 10:47:24;;;;;;;;;;;;;;;18.37;68.86;95057.69;5096585;28;1302;-56
2023/10/19 10:49:51;;;;;;;;;;;;;;;18.54;71.22;95057.00;5096638;28;1280;-56
2023/10/19 10:52:28;;;;;;;;;;;;;;;18.68;68.97;95056.97;5096416;28;1055;-56
2023/10/19 10:54:55;;;;;;;;;;;;;;;18.85;68.25;95052.75;5096529;28;984;-56
2023/10/19 10:57:21;;;;;;;;;;;;;;;18.88;66.23;95046.91;5096105;28;1116;-56
2023/10/19 11:00:00;;;;;;;;;;;;;;;19.00;66.19;95038.94;5096253;28;992;-55
2023/10/19 11:02:25;;;;;;;;;;;;;;;19.09;65.19;95044.94;5096306;28;987;-56
2023/10/19 11:04:51;;;;;;;;;;;;;;;19.21;66.96;95036.94;5095926;28;952;-56
2023/10/19 11:07:18;;;;;;;;;;;;;;;19.10;66.38;95036.59;5102216;28;1145;-56
2023/10/19 11:09:45;;;;;;;;;;;;;;;18.85;68.11;95028.38;5116293;28;1573;-57
2023/10/19 11:12:19;;;;;;;;;;;;;;;18.96;68.32;95037.72;5116341;28;1044;-58
2023/10/19 11:14:51;;;;;;;;;;;;;;;19.14;69.55;95031.56;5116340;28;1043;-57
2023/10/19 11:17:17;;;;;;;;;;;;;;;19.17;68.11;95031.13;5116084;28;1043;-57
2023/10/19 11:19:44;;;;;;;;;;;;;;;19.21;69.62;95021.50;5116099;28;1023;-56
2023/10/19 11:22:11;;;;;;;;;;;;;;;19.24;67.64;95021.09;5115058;28;2001;-56
2023/10/19 11:24:39;;;;;;;;;;;;;;;19.32;68.16;95017.28;5116043;28;1048;-55
2023/10/19 11:27:07;;;;;;;;;;;;;;;19.41;67.65;95015.16;5116370;28;972;-65
2023/10/19 11:29:36;;;;;;;;;;;;;;;19.46;68.41;95013.44;5115824;28;1043;-64
2023/10/19 11:32:02;;;;;;;;;;;;;;;19.53;69.01;95007.94;5115848;28;957;-63
2023/10/19 11:34:29;;;;;;;;;;;;;;;19.47;67.29;94993.41;5114909;28;945;-63
2023/10/19 11:36:59;;;;;;;;;;;;;;;19.49;68.37;94990.47;5115996;28;1028;-60
2023/10/19 11:39:25;;;;;;;;;;;;;;;19.55;66.74;94988.75;5115922;28;960;-64
2023/10/19 11:41:52;;;;;;;;;;;;;;;19.53;68.08;94988.97;5115682;28;1988;-60
2023/10/19 11:44:19;;;;;;;;;;;;;;;19.64;67.50;94998.28;5115850;28;960;-64
2023/10/19 11:46:45;;;;;;;;;;;;;;;19.64;67.79;94982.84;5115557;28;1016;-62
2023/10/19 11:49:11;;;;;;;;;;;;;;;19.63;67.80;94981.16;5115789;28;961;-65
2023/10/19 11:51:37;;;;;;;;;;;;;;;19.75;66.86;94986.75;5115891;28;1208;-64
2023/10/19 11:54:06;;;;;;;;;;;;;;;19.84;68.37;94977.28;5115492;28;889;-57
2023/10/19 11:57:43;;;;;;;;;;;;;;;19.88;67.94;94974.91;5115661;27;1510597;-56
2023/10/19 12:00:23;;;;;;;;;;;;;;;19.99;66.67;94968.75;5152733;27;981;-59
2023/10/19 12:02:49;;;;;;;;;;;;;;;20.08;68.06;94963.88;5152506;27;1139;-62
2023/10/19 12:05:15;;;;;;;;;;;;;;;20.12;66.84;94961.53;5152579;27;1044;-59
2023/10/19 12:07:44;;;;;;;;;;;;;;;20.18;68.76;94964.16;5152527;27;1165;-56
2023/10/19 12:10:12;;;;;;;;;;;;;;;20.12;67.57;94967.78;5152556;27;1045;-56
2023/10/19 12:12:38;;;;;;;;;;;;;;;20.09;67.69;94958.22;5152268;27;1056;-56
2023/10/19 12:15:07;;;;;;;;;;;;;;;20.04;64.73;94952.63;5152315;27;1051;-56
2023/10/19 12:17:33;;;;;;;;;;;;;;;20.09;68.65;94957.41;5152055;27;1988;-55
2023/10/19 12:20:00;;;;;;;;;;;;;;;20.05;65.47;94951.59;5152093;27;1024;-56
2023/10/19 12:22:32;;;;;;;;;;;;;;;19.87;63.40;94955.09;5152182;27;1011;-56
2023/10/19 12:24:59;;;;;;;;;;;;;;;20.06;63.59;94950.53;5152380;27;961;-56
2023/10/19 12:27:25;;;;;;;;;;;;;;;20.22;64.76;94953.69;5151861;27;1095;-56
2023/10/19 12:29:54;;;;;;;;;;;;;;;20.31;64.09;94956.94;5152150;27;1047;-56
2023/10/19 12:32:21;;;;;;;;;;;;;;;20.44;63.24;94954.91;5151799;27;1851;-56
2023/10/19 12:34:52;;;;;;;;;;;;;;;20.47;60.14;94956.34;5151830;27;1140;-55
2023/10/19 12:37:19;;;;;;;;;;;;;;;20.60;61.68;94960.78;5151696;27;1910;-56
2023/10/19 12:39:48;;;;;;;;;;;;;;;20.71;62.16;94954.59;5151917;27;1027;-56
2023/10/19 12:42:15;;;;;;;;;;;;;;;20.67;63.45;94945.25;5151631;27;1083;-56
2023/10/19 12:44:41;;;;;;;;;;;;;;;20.56;59.23;94951.41;5151969;27;997;-58
2023/10/19 12:47:13;;;;;;;;;;;;;;;20.59;61.18;94940.13;5151480;27;1024;-56
2023/10/19 12:49:42;;;;;;;;;;;;;;;20.63;58.84;94938.63;5151791;27;1024;-56
2023/10/19 12:52:08;;;;;;;;;;;;;;;20.63;61.58;94931.28;5151681;27;948;-57
2023/10/19 12:54:37;;;;;;;;;;;;;;;20.61;60.76;94919.84;5151274;27;1036;-57
2023/10/19 12:57:06;;;;;;;;;;;;;;;20.62;62.14;94924.22;5151224;27;1913;-57
2023/10/19 12:59:33;;;;;;;;;;;;;;;20.56;60.45;94919.66;5151282;27;1001;-56
2023/10/19 13:02:02;;;;;;;;;;;;;;;20.55;61.14;94917.19;5151109;27;1019;-56
2023/10/19 13:04:30;;;;;;;;;;;;;;;20.59;59.52;94921.91;5150914;27;1040;-56
2023/10/19 13:06:57;;;;;;;;;;;;;;;20.59;60.82;94918.38;5149552;27;1185;-56
2023/10/19 13:09:30;;;;;;;;;;;;;;;20.58;61.44;94912.13;5136831;27;1083;-56
2023/10/19 13:11:57;;;;;;;;;;;;;;;20.54;65.86;94901.94;5137990;27;2470;-56
2023/10/19 13:14:23;;;;;;;;;;;;;;;20.40;62.28;94904.81;5136945;27;1044;-56
2023/10/19 13:16:52;;;;;;;;;;;;;;;20.40;66.69;94898.56;5136922;27;1991;-56
2023/10/19 13:19:20;;;;;;;;;;;;;;;20.28;63.75;94893.09;5136849;27;1099;-56
2023/10/19 13:21:49;;;;;;;;;;;;;;;20.23;69.25;94885.63;5136952;27;1867;-56
2023/10/19 13:24:16;;;;;;;;;;;;;;;20.09;65.79;94889.56;5136907;27;1016;-56
2023/10/19 13:26:45;;;;;;;;;;;;;;;20.03;67.14;94887.72;5137197;27;1047;-56
2023/10/19 13:29:11;;;;;;;;;;;;;;;20.04;67.79;94884.78;5136596;27;1033;-56
2023/10/19 13:31:37;;;;;;;;;;;;;;;20.04;68.73;94881.25;5136783;27;2014;-56